Data for 03/23/2015

Time Sea-Level Adjusted Pressure Absolute Pressure Temperature Relative Humidity Dew Point   
(mb) (inHg) (mb) (inHg) (C) (F) (%) (C) (F)
00:05 1015 29.97 845 24.95 5.7 42.3 25 -13.1 8.4
00:10 1015 29.97 844 24.92 5.8 42.5 24 -13.3 8.1
00:15 1015 29.97 844 24.92 5.8 42.5 24 -13.2 8.2
00:20 1015 29.97 844 24.92 5.8 42.5 24 -13.1 8.4
00:25 1015 29.97 844 24.92 5.7 42.2 24 -13.2 8.3
00:30 1015 29.97 844 24.92 5.8 42.4 24 -13.3 8
00:35 1015 29.97 844 24.92 5.9 42.6 24 -13.4 7.8
00:40 1015 29.97 844 24.92 5.9 42.6 24 -13.4 7.9
00:45 1015 29.97 844 24.92 5.9 42.6 23 -13.6 7.5
00:50 1015 29.97 844 24.92 6 42.8 24 -13.1 8.3
00:55 1015 29.97 844 24.92 5.8 42.5 23 -13.6 7.5
01:00 1015 29.97 844 24.92 5.9 42.6 24 -13.2 8.2
01:05 1015 29.97 844 24.92 5.7 42.2 25 -13.1 8.4
01:10 1015 29.97 844 24.92 5.5 41.9 24 -13.6 7.6
01:15 1015 29.97 844 24.92 5.7 42.3 24 -13.2 8.2
01:20 1015 29.97 844 24.92 5.7 42.2 24 -13.4 7.8
01:25 1015 29.97 844 24.92 5.6 42 24 -13.3 8.1
01:30 1015 29.97 844 24.92 5.6 42 24 -13.4 7.8
01:35 1015 29.97 844 24.92 5.5 42 24 -13.6 7.5
01:40 1015 29.97 844 24.92 5.7 42.2 25 -13.1 8.5
01:45 1014 29.94 844 24.92 5.4 41.8 25 -13 8.7
01:50 1014 29.94 844 24.92 5.5 42 24 -13.4 7.9
01:55 1014 29.94 844 24.92 5.5 41.9 24 -13.5 7.7
02:00 1014 29.94 844 24.92 5.5 42 24 -13.5 7.7
02:05 1014 29.94 844 24.92 5.6 42.1 24 -13.6 7.4
02:10 1014 29.94 843 24.89 5.6 42.1 25 -13 8.6
02:15 1014 29.94 843 24.89 5.4 41.7 24 -13.4 7.8
02:20 1014 29.94 843 24.89 5.4 41.7 25 -13.4 8
02:25 1014 29.94 843 24.89 5.2 41.4 25 -13.3 8.1
02:30 1014 29.94 843 24.89 5.3 41.6 24 -13.9 6.9
02:35 1014 29.94 843 24.89 5.7 42.2 23 -14.1 6.7
02:40 1014 29.94 843 24.89 6.1 43 22 -14.2 6.5
02:45 1014 29.94 843 24.89 6.2 43.2 22 -14 6.9
02:50 1014 29.94 843 24.89 6.2 43.1 22 -13.9 7
02:55 1014 29.94 843 24.89 6 42.9 23 -13.8 7.1
03:00 1014 29.94 843 24.89 6 42.7 23 -13.8 7.1
03:05 1014 29.94 843 24.89 6 42.8 22 -14 6.7
03:10 1013 29.91 843 24.89 6.1 43.1 22 -14 6.8
03:15 1013 29.91 843 24.89 6 42.8 23 -13.6 7.6
03:20 1013 29.91 843 24.89 5.8 42.4 23 -13.7 7.4
03:25 1013 29.91 843 24.89 5.6 42.1 24 -13.5 7.8
03:30 1013 29.91 842 24.86 5.6 42 24 -13.5 7.7
03:35 1013 29.91 842 24.86 5.6 42.1 24 -13.7 7.4
03:40 1013 29.91 842 24.86 5.8 42.5 23 -13.8 7.1
03:45 1013 29.91 842 24.86 6 42.7 23 -13.7 7.4
03:50 1013 29.91 842 24.86 5.9 42.7 23 -13.6 7.6
03:55 1013 29.91 842 24.86 6 42.8 23 -13.6 7.5
04:00 1013 29.91 842 24.86 5.9 42.7 23 -13.6 7.6
04:05 1013 29.91 842 24.86 5.9 42.6 24 -13.4 8
04:10 1013 29.91 842 24.86 5.8 42.4 24 -13.3 8
04:15 1013 29.91 842 24.86 5.7 42.3 24 -13.4 7.9
04:20 1013 29.91 842 24.86 5.8 42.4 24 -13.2 8.2
04:25 1013 29.91 842 24.86 5.8 42.4 24 -13.4 7.9
04:30 1013 29.91 842 24.86 5.8 42.5 24 -13.4 7.8
04:35 1013 29.91 842 24.86 5.9 42.6 24 -13.2 8.2
04:40 1012 29.88 842 24.86 5.8 42.5 24 -13.3 8
04:45 1012 29.88 842 24.86 5.8 42.4 24 -13.3 8.1
04:50 1012 29.88 842 24.86 5.9 42.6 24 -13.4 7.8
04:55 1012 29.88 842 24.86 6 42.8 24 -13.3 8.1
05:00 1012 29.88 842 24.86 6 42.7 24 -13.2 8.3
05:05 1012 29.88 841 24.83 6.1 42.9 24 -13.2 8.3
05:10 1012 29.88 841 24.83 6.1 43 24 -13.3 8.1
05:15 1012 29.88 841 24.83 6.2 43.2 24 -13.1 8.4
05:20 1012 29.88 841 24.83 6.2 43.2 24 -13.1 8.4
05:25 1012 29.88 841 24.83 6.3 43.3 24 -13 8.7
05:30 1012 29.88 841 24.83 6.3 43.3 24 -13 8.6
05:35 1012 29.88 841 24.83 6.3 43.3 24 -12.8 8.9
05:40 1012 29.88 841 24.83 6.3 43.3 24 -12.8 8.9
05:45 1012 29.88 841 24.83 6.3 43.4 24 -12.8 9
05:50 1012 29.88 841 24.83 6.4 43.6 24 -12.7 9.1
05:55 1012 29.88 841 24.83 6.5 43.7 24 -12.8 8.9
06:00 1012 29.88 841 24.83 6.5 43.8 24 -12.6 9.3
06:05 1012 29.88 841 24.83 6.5 43.8 24 -12.5 9.5
06:10 1012 29.88 841 24.83 6.5 43.6 25 -12.4 9.7
06:15 1012 29.88 841 24.83 6.4 43.5 25 -12.4 9.7
06:20 1012 29.88 841 24.83 6.3 43.3 25 -12.3 9.9
06:25 1012 29.88 841 24.83 6.2 43.1 25 -12.3 9.9
06:30 1012 29.88 841 24.83 6.1 42.9 26 -11.9 10.5
06:35 1012 29.88 841 24.83 5.9 42.6 27 -11.9 10.7
06:40 1012 29.88 841 24.83 5.9 42.6 27 -11.8 10.8
06:45 1011 29.85 841 24.83 5.9 42.7 27 -11.6 11.1
06:50 1011 29.85 841 24.83 5.9 42.6 27 -11.7 10.9
06:55 1011 29.85 841 24.83 6 42.8 27 -11.6 11.2
07:00 1011 29.85 841 24.83 6 42.8 27 -11.5 11.4
07:05 1011 29.85 840 24.81 6 42.8 27 -11.7 11
07:10 1011 29.85 840 24.81 6.2 43.1 27 -11.6 11.1
07:15 1011 29.85 840 24.81 6.3 43.4 27 -11.5 11.3
07:20 1011 29.85 840 24.81 6.4 43.6 27 -11.3 11.6
07:25 1011 29.85 840 24.81 6.5 43.8 27 -11.2 11.8
07:30 1011 29.85 840 24.81 6.5 43.7 27 -11 12.1
07:35 1011 29.85 840 24.81 6.6 43.8 27 -11 12.2
07:40 1011 29.85 840 24.81 6.6 43.9 27 -10.9 12.3
07:45 1011 29.85 840 24.81 6.6 43.9 27 -11 12.2
07:50 1011 29.85 840 24.81 6.6 43.9 28 -10.8 12.5
07:55 1011 29.85 840 24.81 6.7 44.1 27 -11 12.3
08:00 1011 29.85 840 24.81 6.9 44.3 27 -10.9 12.3
08:05 1011 29.85 840 24.81 7.1 44.8 27 -10.8 12.5
08:10 1011 29.85 840 24.81 7.4 45.3 27 -10.6 12.8
08:15 1011 29.85 840 24.81 7.6 45.6 27 -10.5 13.1
08:20 1011 29.85 840 24.81 7.7 45.8 26 -10.5 13.1
08:25 1011 29.85 840 24.81 7.8 46.1 27 -10.3 13.5
08:30 1010 29.83 840 24.81 7.9 46.3 27 -10.2 13.7
08:35 1010 29.83 840 24.81 8.1 46.6 26 -10.2 13.6
08:40 1010 29.83 840 24.81 8.3 46.9 26 -10.2 13.7
08:45 1010 29.83 840 24.81 8.5 47.3 26 -10 14.1
08:50 1010 29.83 840 24.81 8.8 47.8 26 -9.9 14.3
08:55 1010 29.83 840 24.81 8.9 47.9 25 -10 14
09:00 1010 29.83 840 24.81 9.1 48.3 25 -9.8 14.3
09:05 1010 29.83 839 24.78 9.3 48.7 25 -9.8 14.4
09:10 1010 29.83 839 24.78 9.5 49 25 -9.8 14.4
09:15 1010 29.83 839 24.78 9.7 49.4 25 -9.6 14.7
09:20 1010 29.83 839 24.78 9.9 49.8 24 -9.6 14.7
09:25 1010 29.83 839 24.78 10 50 24 -9.7 14.6
09:30 1010 29.83 839 24.78 10.2 50.3 24 -9.5 15
09:35 1010 29.83 839 24.78 10.4 50.7 23 -9.6 14.7
09:40 1010 29.83 839 24.78 10.5 51 23 -9.5 14.9
09:45 1010 29.83 839 24.78 10.7 51.2 24 -9.3 15.3
09:50 1010 29.83 839 24.78 10.9 51.7 24 -9.1 15.7
09:55 1010 29.83 839 24.78 11.2 52.1 23 -9 15.8
10:00 1010 29.83 839 24.78 11.4 52.5 23 -8.9 15.9
10:05 1010 29.83 839 24.78 11.6 52.9 23 -8.9 16
10:10 1010 29.83 839 24.78 11.4 52.6 27 -7 19.3
10:15 1010 29.83 839 24.78 10.8 51.4 29 -6.6 20.2
10:20 1010 29.83 839 24.78 10.5 50.9 29 -6.6 20.2
10:25 1010 29.83 839 24.78 9.9 49.8 31 -6.4 20.5
10:30 1010 29.83 839 24.78 9.2 48.5 32 -6.8 19.8
10:35 1010 29.83 839 24.78 8.9 48.1 33 -6.3 20.7
10:40 1010 29.83 839 24.78 8.3 46.9 34 -6.8 19.8
10:45 1010 29.83 839 24.78 8.6 47.4 33 -6.8 19.8
10:50 1010 29.83 839 24.78 8.6 47.4 30 -7.9 17.9
10:55 1010 29.83 839 24.78 8.4 47.1 30 -8.2 17.2
11:00 1010 29.83 839 24.78 8.5 47.3 31 -7.5 18.4
11:05 1010 29.83 839 24.78 8.8 47.8 30 -8 17.5
11:10 1010 29.83 839 24.78 9.6 49.4 27 -8.4 16.9
11:15 1010 29.83 839 24.78 10.1 50.3 28 -7.6 18.2
11:20 1010 29.83 839 24.78 9.9 49.7 28 -7.6 18.4
11:25 1010 29.83 839 24.78 9.5 49.2 30 -7.3 18.9
11:30 1010 29.83 839 24.78 9.5 49.1 30 -7.4 18.6
11:35 1010 29.83 839 24.78 9.7 49.4 30 -7 19.3
11:40 1010 29.83 839 24.78 9.9 49.8 29 -7.2 19.1
11:45 1010 29.83 839 24.78 9.7 49.5 30 -6.9 19.5
11:50 1010 29.83 839 24.78 9.6 49.4 30 -7.2 19
11:55 1010 29.83 839 24.78 9.7 49.5 30 -7.1 19.2
12:00 1010 29.83 839 24.78 9.9 49.8 29 -7.2 19
12:05 1010 29.83 839 24.78 9.7 49.4 30 -7 19.4
12:10 1010 29.83 839 24.78 10.1 50.1 29 -7 19.5
12:15 1010 29.83 839 24.78 9.9 49.8 30 -6.8 19.7
12:20 1010 29.83 839 24.78 10 50.1 30 -6.8 19.7
12:25 1010 29.83 839 24.78 10.4 50.7 30 -6.3 20.6
12:30 1010 29.83 840 24.81 10.5 50.9 33 -5 23
12:35 1010 29.83 840 24.81 10.7 51.2 31 -5.6 21.9
12:40 1010 29.83 840 24.81 10.7 51.2 31 -5.7 21.8
12:45 1010 29.83 840 24.81 10.5 50.9 33 -5.3 22.5
12:50 1010 29.83 840 24.81 10.1 50.3 33 -5.5 22.1
12:55 1010 29.83 840 24.81 10.3 50.5 33 -5.5 22.2
13:00 1011 29.85 840 24.81 10.2 50.4 34 -5 22.9
13:05 1011 29.85 840 24.81 10 50 37 -3.9 24.9
13:10 1010 29.83 840 24.81 9.9 49.9 38 -3.6 25.5
13:15 1010 29.83 840 24.81 9.9 49.9 39 -3.5 25.7
13:20 1010 29.83 840 24.81 9.8 49.6 40 -3.2 26.3
13:25 1011 29.85 840 24.81 9.6 49.4 40 -3.2 26.2
13:30 1011 29.85 840 24.81 9.6 49.2 44 -2.1 28.3
13:35 1011 29.85 840 24.81 8.9 48 46 -1.9 28.5
13:40 1010 29.83 840 24.81 8.8 47.9 46 -2.2 28
13:45 1010 29.83 840 24.81 9 48.3 39 -4.1 24.7
13:50 1010 29.83 840 24.81 9.3 48.7 38 -4.4 24
13:55 1010 29.83 839 24.78 9.3 48.7 46 -1.8 28.7
14:00 1010 29.83 839 24.78 8.7 47.7 48 -1.6 29.1
14:05 1010 29.83 839 24.78 8.9 48 42 -3.3 26.1
14:10 1010 29.83 840 24.81 9.1 48.3 39 -4.2 24.5
14:15 1010 29.83 839 24.78 9.1 48.5 37 -4.7 23.5
14:20 1010 29.83 839 24.78 9.4 48.8 34 -5.7 21.8
14:25 1011 29.85 840 24.81 9.6 49.2 48 -0.9 30.3
14:30 1011 29.85 840 24.81 7.6 45.7 58 -0.2 31.6
14:35 1011 29.85 840 24.81 6.8 44.2 62 -0 32
14:40 1011 29.85 840 24.81 6.7 44 64 0.4 32.7
14:45 1011 29.85 840 24.81 6.6 43.9 63 0.1 32.3
14:50 1011 29.85 840 24.81 6.7 44.1 63 0.1 32.3
14:55 1011 29.85 841 24.83 6.8 44.2 63 0.2 32.3
15:00 1011 29.85 841 24.83 6.7 44.1 61 -0.3 31.4
15:05 1011 29.85 841 24.83 6.6 43.9 60 -0.5 31.1
15:10 1011 29.85 841 24.83 6.4 43.5 66 0.4 32.8
15:15 1012 29.88 841 24.83 6.2 43.2 68 0.7 33.2
15:20 1012 29.88 841 24.83 6.1 43.1 66 0.4 32.7
15:25 1012 29.88 841 24.83 6.3 43.4 63 -0.2 31.6
15:30 1012 29.88 841 24.83 6.5 43.7 62 -0.3 31.4
15:35 1012 29.88 841 24.83 5.6 42.1 68 0.2 32.4
15:40 1012 29.88 841 24.83 4.5 40.1 74 0.2 32.4
15:45 1012 29.88 841 24.83 4.1 39.3 77 0.4 32.7
15:50 1012 29.88 841 24.83 3.8 38.9 78 0.4 32.7
15:55 1012 29.88 841 24.83 3.8 38.8 78 0.2 32.4
16:00 1012 29.88 842 24.86 3.6 38.5 79 0.3 32.5
16:05 1012 29.88 841 24.83 3.6 38.4 79 0.3 32.5
16:10 1012 29.88 842 24.86 3.6 38.4 80 0.4 32.7
16:15 1012 29.88 841 24.83 4 39.2 74 -0.3 31.5
16:20 1012 29.88 842 24.86 4.5 40.2 74 0.3 32.5
16:25 1012 29.88 842 24.86 4.2 39.6 79 1 33.7
16:30 1013 29.91 842 24.86 3.8 38.8 80 0.7 33.2
16:35 1013 29.91 842 24.86 3.8 38.9 80 0.7 33.2
16:40 1013 29.91 842 24.86 4.2 39.5 79 0.8 33.4
16:45 1013 29.91 842 24.86 4.2 39.6 81 1.3 34.4
16:50 1013 29.91 842 24.86 4.1 39.3 83 1.5 34.7
16:55 1013 29.91 842 24.86 3.8 38.8 84 1.3 34.3
17:00 1013 29.91 842 24.86 3.1 37.7 87 1.2 34.2
17:05 1013 29.91 842 24.86 3.2 37.7 88 1.4 34.4
17:10 1013 29.91 842 24.86 3.4 38.1 87 1.5 34.7
17:15 1013 29.91 842 24.86 3.4 38.2 85 1.1 33.9
17:20 1013 29.91 842 24.86 2.9 37.2 86 0.8 33.4
17:25 1013 29.91 842 24.86 2.4 36.3 88 0.6 33.2
17:30 1013 29.91 843 24.89 2.3 36.1 88 0.5 33
17:35 1013 29.91 842 24.86 2.1 35.8 89 0.5 32.8
17:40 1013 29.91 842 24.86 2 35.7 90 0.5 32.9
17:45 1013 29.91 842 24.86 1.9 35.4 90 0.4 32.8
17:50 1013 29.91 842 24.86 1.8 35.2 91 0.4 32.8
17:55 1013 29.91 842 24.86 1.7 35.1 91 0.4 32.8
18:00 1013 29.91 842 24.86 1.6 34.8 92 0.3 32.6
18:05 1013 29.91 842 24.86 1.4 34.5 92 0.2 32.4
18:10 1013 29.91 842 24.86 1.2 34.2 92 0.1 32.3
18:15 1013 29.91 842 24.86 1.3 34.3 92 0.1 32.3
18:20 1013 29.91 842 24.86 1.3 34.3 92 0.1 32.3
18:25 1013 29.91 842 24.86 1.3 34.4 92 0.2 32.3
18:30 1013 29.91 842 24.86 1.3 34.3 92 0.1 32.3
18:35 1013 29.91 842 24.86 1.3 34.4 92 0.2 32.3
18:40 1013 29.91 842 24.86 1.4 34.5 92 0.2 32.4
18:45 1013 29.91 842 24.86 1.4 34.5 92 0.3 32.5
18:50 1013 29.91 842 24.86 1.4 34.6 92 0.2 32.4
18:55 1013 29.91 842 24.86 1.3 34.4 92 0.1 32.2
19:00 1013 29.91 842 24.86 1.3 34.3 92 0.1 32.2
19:05 1013 29.91 842 24.86 1.2 34.2 92 0 32.1
19:10 1013 29.91 842 24.86 1.1 34.1 92 -0 31.9
19:15 1013 29.91 842 24.86 1.2 34.1 92 -0.1 31.9
19:20 1013 29.91 842 24.86 1.1 33.9 92 -0.1 31.8
19:25 1013 29.91 842 24.86 1 33.7 92 -0.2 31.7
19:30 1013 29.91 842 24.86 0.9 33.7 92 -0.2 31.6
19:35 1013 29.91 842 24.86 1 33.7 92 -0.2 31.6
19:40 1013 29.91 842 24.86 1 33.7 92 -0.2 31.6
19:45 1013 29.91 842 24.86 0.9 33.6 92 -0.3 31.5
19:50 1013 29.91 842 24.86 1 33.7 91 -0.3 31.5
19:55 1013 29.91 842 24.86 1.2 34.1 90 -0.3 31.4
20:00 1013 29.91 842 24.86 1.4 34.5 88 -0.4 31.3
20:05 1013 29.91 842 24.86 1.6 34.9 87 -0.4 31.4
20:10 1013 29.91 842 24.86 1.5 34.6 89 -0.2 31.6
20:15 1013 29.91 842 24.86 1.2 34.2 89 -0.4 31.2
20:20 1013 29.91 842 24.86 1.3 34.3 88 -0.5 31.2
20:25 1013 29.91 842 24.86 1.4 34.5 87 -0.5 31.2
20:30 1013 29.91 842 24.86 1.7 35.1 85 -0.6 30.9
20:35 1013 29.91 842 24.86 2.1 35.8 83 -0.5 31.1
20:40 1013 29.91 842 24.86 2.1 35.8 84 -0.3 31.4
20:45 1013 29.91 842 24.86 1.9 35.5 85 -0.4 31.3
20:50 1013 29.91 843 24.89 1.9 35.3 85 -0.4 31.2
20:55 1013 29.91 843 24.89 1.9 35.3 85 -0.3 31.4
21:00 1013 29.91 843 24.89 1.7 35.1 82 -0.9 30.3
21:05 1013 29.91 843 24.89 1.9 35.4 80 -1.2 29.9
21:10 1013 29.91 843 24.89 1.8 35.3 78 -1.6 29.2
21:15 1014 29.94 843 24.89 1.9 35.5 76 -1.9 28.6
21:20 1014 29.94 843 24.89 2.1 35.7 75 -2 28.5
21:25 1014 29.94 843 24.89 2.2 35.9 78 -1.2 29.8
21:30 1014 29.94 843 24.89 1.7 35 84 -0.8 30.6
21:35 1014 29.94 843 24.89 1.2 34.2 85 -1.1 30
21:40 1014 29.94 843 24.89 1.3 34.4 84 -1.1 30
21:45 1014 29.94 843 24.89 1.4 34.6 82 -1.4 29.5
21:50 1014 29.94 843 24.89 1.6 34.9 79 -1.6 29.2
21:55 1014 29.94 843 24.89 1.9 35.4 78 -1.5 29.2
22:00 1014 29.94 843 24.89 2 35.6 80 -1.2 29.9
22:05 1014 29.94 843 24.89 1.9 35.4 80 -1.2 29.9
22:10 1014 29.94 843 24.89 1.8 35.3 83 -0.8 30.5
22:15 1014 29.94 843 24.89 1.7 35.1 81 -1.1 29.9
22:20 1014 29.94 843 24.89 1.8 35.2 81 -1.2 29.9
22:25 1014 29.94 843 24.89 1.9 35.4 77 -1.7 29
22:30 1014 29.94 843 24.89 2 35.6 77 -1.7 29
22:35 1014 29.94 843 24.89 2.1 35.8 76 -1.8 28.8
22:40 1014 29.94 843 24.89 2.2 35.9 76 -1.6 29.2
22:45 1014 29.94 844 24.92 2.2 35.9 76 -1.6 29.1
22:50 1014 29.94 844 24.92 2.2 35.9 76 -1.6 29.1
22:55 1014 29.94 844 24.92 2.2 36 76 -1.6 29.1
23:00 1014 29.94 844 24.92 2.3 36.1 78 -1.2 29.8
23:05 1014 29.94 844 24.92 2.2 35.9 78 -1.2 29.8
23:10 1014 29.94 844 24.92 2.1 35.8 79 -1.2 29.8
23:15 1014 29.94 844 24.92 2.1 35.8 77 -1.4 29.4
23:20 1014 29.94 844 24.92 2.2 35.9 77 -1.4 29.4
23:25 1014 29.94 844 24.92 2.2 35.9 77 -1.5 29.3
23:30 1015 29.97 844 24.92 2.2 36 76 -1.6 29
23:35 1015 29.97 844 24.92 2.4 36.2 74 -1.7 28.9
23:40 1015 29.97 844 24.92 2.3 36.2 75 -1.6 29.1
23:45 1015 29.97 844 24.92 2.3 36.1 76 -1.4 29.4
23:50 1015 29.97 844 24.92 2.1 35.8 77 -1.5 29.3
23:55 1015 29.97 844 24.92 2.1 35.8 78 -1.4 29.4
24:00 1015 29.97 844 24.92 2.1 35.9 76 -1.7 29